Saturday, January 20, 2018, 7:18 AM CST
Back to Local

KMHK, Manhattan Regional Airport

Location: Ogden, KS, United States Lat: 39.133
Local Time: 7:18 AM CST (13:18 GMT) Lon: -96.683
Time Zone: US/Central Elev: 1056 ft

Show me the last for .
Show Decoded

2018-01-20 06:52 METAR KMHK 201252Z 20005KT 10SM OVC016 08/06 A2981 RMK AO2 SLP099 T00830056 =
2018-01-20 06:11 METAR KMHK 201211Z AUTO 20006KT 10SM OVC015 08/06 A2981 =
2018-01-20 05:52 METAR KMHK 201152Z AUTO 21007KT 10SM OVC014 08/06 A2981 RMK AO2 SLP097 T00830056
                 10083 20028 51006 =
2018-01-20 04:52 METAR KMHK 201052Z AUTO 22005KT 10SM OVC012 06/04 A2981 RMK AO2 SLP095 T00610039
                 =
2018-01-20 04:17 METAR KMHK 201017Z AUTO 23003KT 10SM BKN013 05/02 A2981 RMK AO2 T00500022 =
2018-01-20 03:52 METAR KMHK 200952Z AUTO 22005KT 10SM CLR 03/01 A2980 RMK AO2 SLP096 T00280006 =
2018-01-20 02:52 METAR KMHK 200852Z AUTO 22006KT 10SM CLR 03/01 A2979 RMK AO2 SLP091 T00330006
                 53002 =
2018-01-20 00:52 METAR KMHK 200652Z AUTO 21006KT 10SM CLR 04/M02 A2979 RMK AO2 SLP089 T00391022 =
2018-01-19 23:52 METAR KMHK 200552Z AUTO 20003KT 10SM CLR 04/M03 A2979 RMK AO2 SLP092 T00391033
                 10083 20028 401330000 51004 =
2018-01-19 22:52 METAR KMHK 200452Z AUTO 22004KT 10SM CLR 05/M03 A2978 RMK AO2 SLP091 T00501033 =
2018-01-19 21:52 METAR KMHK 200352Z AUTO 21006KT 10SM CLR 04/M03 A2978 RMK AO2 SLP091 T00441033 =
2018-01-19 20:52 METAR KMHK 200252Z 21006KT 10SM CLR 04/M04 A2978 RMK AO2 SLP090 T00441039 53010
                 =
2018-01-19 19:52 METAR KMHK 200152Z 21008KT 10SM CLR 07/M03 A2976 RMK AO2 SLP086 T00671033 =
2018-01-19 18:52 METAR KMHK 200052Z 19005KT 10SM CLR 07/M04 A2975 RMK AO2 SLP081 T00671039 =
2018-01-19 17:52 METAR KMHK 192352Z 20006KT 10SM CLR 09/M04 A2974 RMK AO2 SLP077 T00891039 10133
                 20078 55002 =
2018-01-19 16:52 METAR KMHK 192252Z 19007KT 10SM CLR 11/M04 A2973 RMK AO2 SLP073 T01061039 =
2018-01-19 15:52 METAR KMHK 192152Z 19010KT 10SM CLR 12/M04 A2974 RMK AO2 SLP074 T01221039 =
2018-01-19 14:52 METAR KMHK 192052Z 19008KT 10SM CLR 13/M04 A2975 RMK AO2 SLP077 T01331039 56033
                 =
2018-01-19 13:52 METAR KMHK 191952Z 20011KT 10SM CLR 12/M04 A2977 RMK AO2 SLP084 T01221039 =
2018-01-19 12:52 METAR KMHK 191852Z 20008KT 10SM CLR 10/M04 A2980 RMK AO2 SLP096 T01001044 =
2018-01-19 11:52 METAR KMHK 191752Z 20010KT 10SM CLR 08/M05 A2985 RMK AO2 SLP113 T00781050 10078
                 20000 58012 =
2018-01-19 10:52 METAR KMHK 191652Z 21013KT 10SM CLR 06/M06 A2988 RMK AO2 SLP123 T00611056 =
2018-01-19 09:52 METAR KMHK 191552Z 21011KT 10SM CLR 03/M06 A2989 RMK AO2 SLP127 T00331061 =
2018-01-19 08:52 METAR KMHK 191452Z 21009KT 10SM CLR 02/M06 A2989 RMK AO2 SLP128 T00171061 50000
                 =
2018-01-19 07:52 METAR KMHK 191352Z 21007KT 10SM CLR 00/M06 A2989 RMK AO2 SLP132 T00001061 =

Support USWX by starting your Amazon purchase here.